createdAt,value
2023-09-08T00:01:14.070Z,6.75
2023-09-08T00:03:41.407Z,5.13
2023-09-08T00:06:08.572Z,6.43
2023-09-08T00:08:35.929Z,5.80
2023-09-08T00:11:03.298Z,5.78
2023-09-08T00:13:30.505Z,5.53
2023-09-08T00:15:57.706Z,6.10
2023-09-08T00:18:25.046Z,5.53
2023-09-08T00:20:52.185Z,5.95
2023-09-08T00:23:19.342Z,6.25
2023-09-08T00:25:46.589Z,6.35
2023-09-08T00:28:13.934Z,5.63
2023-09-08T00:30:41.168Z,6.45
2023-09-08T00:33:10.085Z,6.13
2023-09-08T00:35:37.550Z,6.50
2023-09-08T00:38:04.854Z,6.47
2023-09-08T00:40:33.512Z,5.63
2023-09-08T00:43:00.687Z,6.10
2023-09-08T00:45:30.254Z,5.55
2023-09-08T00:47:58.210Z,6.38
2023-09-08T00:50:25.604Z,6.60
2023-09-08T00:52:52.844Z,6.05
2023-09-08T00:55:20.414Z,6.38
2023-09-08T00:57:47.686Z,6.28
2023-09-08T01:00:15.513Z,6.40
2023-09-08T01:02:42.960Z,6.65
2023-09-08T01:05:10.283Z,7.25
2023-09-08T01:07:37.629Z,6.57
2023-09-08T01:10:07.104Z,6.90
2023-09-08T01:12:35.991Z,6.75
2023-09-08T01:15:03.940Z,7.70
2023-09-08T01:17:31.145Z,6.63
2023-09-08T01:20:00.221Z,6.95
2023-09-08T01:22:39.858Z,6.85
2023-09-08T01:25:22.549Z,7.95
2023-09-08T01:27:54.191Z,7.38
2023-09-08T01:30:22.478Z,7.20
2023-09-08T01:32:50.446Z,6.82
2023-09-08T01:35:17.877Z,6.40
2023-09-08T01:37:48.918Z,7.47
2023-09-08T01:40:16.215Z,7.15
2023-09-08T01:42:43.552Z,8.15
2023-09-08T01:45:10.830Z,7.40
2023-09-08T01:47:38.291Z,7.30
2023-09-08T01:50:05.730Z,7.10
2023-09-08T01:52:32.906Z,7.57
2023-09-08T01:55:00.068Z,7.53
2023-09-08T01:57:27.336Z,7.60
2023-09-08T01:59:54.513Z,7.85
2023-09-08T02:02:21.760Z,7.43
2023-09-08T02:04:49.674Z,8.57
2023-09-08T02:07:16.943Z,7.72
2023-09-08T02:09:44.112Z,7.82
2023-09-08T02:12:11.317Z,6.57
2023-09-08T02:14:39.052Z,6.60
2023-09-08T02:17:07.304Z,8.38
2023-09-08T02:19:34.518Z,7.50
2023-09-08T02:22:01.685Z,7.50
2023-09-08T02:24:28.960Z,7.93
2023-09-08T02:26:56.230Z,6.30
2023-09-08T02:29:23.893Z,7.95
2023-09-08T02:31:51.221Z,7.50
2023-09-08T02:34:18.818Z,8.85
2023-09-08T02:36:48.624Z,8.88
2023-09-08T02:39:16.098Z,8.63
2023-09-08T02:41:43.283Z,6.72
2023-09-08T02:44:10.477Z,8.15
2023-09-08T02:46:37.666Z,8.48
2023-09-08T02:49:05.093Z,7.22
2023-09-08T02:51:32.275Z,7.68
2023-09-08T02:53:59.525Z,7.85
2023-09-08T02:56:26.747Z,7.53
2023-09-08T02:58:53.908Z,8.38
2023-09-08T03:01:21.818Z,9.45
2023-09-08T03:03:49.691Z,6.72
2023-09-08T03:06:17.543Z,7.63
2023-09-08T03:08:44.712Z,8.80
2023-09-08T03:11:11.913Z,8.90
2023-09-08T03:13:39.252Z,8.20
2023-09-08T03:16:07.446Z,7.55
2023-09-08T03:18:35.305Z,9.20
2023-09-08T03:21:04.604Z,8.48
2023-09-08T03:23:31.862Z,8.15
2023-09-08T03:25:59.102Z,8.93
2023-09-08T03:28:26.288Z,9.23
2023-09-08T03:30:53.433Z,7.45
2023-09-08T03:33:20.900Z,8.35
2023-09-08T03:35:48.172Z,8.75
2023-09-08T03:38:15.398Z,9.27
2023-09-08T03:40:43.706Z,9.00
2023-09-08T03:43:11.028Z,8.18
2023-09-08T03:45:38.295Z,8.52
2023-09-08T03:48:05.969Z,7.75
2023-09-08T03:50:33.405Z,6.78
2023-09-08T03:53:00.573Z,9.80
2023-09-08T03:55:28.437Z,8.10
2023-09-08T03:57:55.665Z,9.45
2023-09-08T04:00:23.522Z,7.65
2023-09-08T04:02:51.330Z,9.07
2023-09-08T04:05:19.139Z,8.75
2023-09-08T04:07:49.094Z,9.93
2023-09-08T04:10:16.307Z,9.45
2023-09-08T04:12:43.530Z,9.38
2023-09-08T04:15:10.986Z,8.77
2023-09-08T04:17:39.002Z,8.30
2023-09-08T04:20:07.495Z,10.05
2023-09-08T04:22:34.867Z,10.23
2023-09-08T04:25:02.357Z,10.23
2023-09-08T04:27:29.590Z,10.35
2023-09-08T04:29:56.848Z,9.30
2023-09-08T04:32:24.070Z,9.57
2023-09-08T04:34:51.329Z,10.68
2023-09-08T04:37:18.791Z,10.02
2023-09-08T04:39:46.031Z,8.40
2023-09-08T04:42:14.066Z,8.60
2023-09-08T04:44:41.355Z,8.70
2023-09-08T04:47:08.534Z,10.43
2023-09-08T04:49:35.892Z,8.38
2023-09-08T04:52:03.111Z,9.18
2023-09-08T04:54:30.417Z,10.35
2023-09-08T04:57:11.914Z,10.63
2023-09-08T04:59:43.746Z,8.88
2023-09-08T05:02:11.012Z,10.88
2023-09-08T05:04:38.174Z,9.70
2023-09-08T05:07:05.388Z,9.75
2023-09-08T05:09:34.353Z,10.20
2023-09-08T05:12:01.707Z,9.85
2023-09-08T05:14:28.930Z,9.57
2023-09-08T05:16:57.409Z,9.75
2023-09-08T05:19:25.076Z,10.57
2023-09-08T05:21:53.289Z,9.13
2023-09-08T05:24:21.948Z,10.18
2023-09-08T05:26:49.176Z,8.43
2023-09-08T05:29:16.362Z,10.90
2023-09-08T05:31:43.760Z,10.85
2023-09-08T05:34:11.168Z,9.48
2023-09-08T05:36:40.954Z,11.30
2023-09-08T05:39:08.345Z,9.70
2023-09-08T05:41:35.726Z,11.75
2023-09-08T05:44:03.209Z,9.18
2023-09-08T05:46:30.519Z,9.77
2023-09-08T05:48:57.745Z,9.52
2023-09-08T05:51:25.005Z,10.88
2023-09-08T05:53:52.285Z,10.00
2023-09-08T05:56:23.516Z,9.77
2023-09-08T05:58:50.776Z,10.10
2023-09-08T06:01:18.672Z,9.10
2023-09-08T06:03:48.125Z,8.50
2023-09-08T06:06:15.578Z,9.75
2023-09-08T06:08:42.810Z,10.90
2023-09-08T06:11:10.060Z,10.43
2023-09-08T06:13:37.253Z,10.35
2023-09-08T06:16:04.646Z,9.90
2023-09-08T06:18:32.462Z,9.02
2023-09-08T07:09:26.222Z,11.45
2023-09-08T07:11:54.339Z,11.00
2023-09-08T07:14:21.640Z,10.65
2023-09-08T07:16:49.937Z,10.10
2023-09-08T07:19:17.864Z,10.63
2023-09-08T07:21:45.666Z,11.02
2023-09-08T07:26:55.767Z,10.45
2023-09-08T07:29:22.998Z,10.20
2023-09-08T07:31:50.342Z,11.27
2023-09-08T07:34:17.636Z,10.52
2023-09-08T07:36:45.116Z,10.02
2023-09-08T07:39:12.385Z,10.80
2023-09-08T07:49:52.055Z,10.85
2023-09-08T08:08:40.629Z,8.93
2023-09-08T08:11:26.891Z,10.13
2023-09-08T08:13:54.110Z,9.77
2023-09-08T08:16:23.497Z,10.30
2023-09-08T08:18:51.253Z,9.63
2023-09-08T08:21:18.769Z,9.30
2023-09-08T08:39:55.836Z,8.43
2023-09-08T08:42:24.151Z,8.15
2023-09-08T08:44:51.665Z,9.20
2023-09-08T08:47:20.269Z,8.93
2023-09-08T08:49:48.357Z,8.77
2023-09-08T08:52:16.950Z,8.98
2023-09-08T08:54:45.053Z,9.63
2023-09-08T08:57:13.612Z,9.45
2023-09-08T08:59:43.133Z,9.25
2023-09-08T09:21:02.426Z,9.88
2023-09-08T09:23:40.805Z,9.18
2023-09-08T09:26:08.904Z,9.57
2023-09-08T09:53:12.672Z,9.38
2023-09-08T09:55:41.242Z,9.05
2023-09-08T09:58:08.850Z,9.98
2023-09-08T10:00:38.374Z,9.15
2023-09-08T10:03:07.096Z,9.35
2023-09-08T10:05:35.517Z,8.80
2023-09-08T10:19:04.817Z,8.95
2023-09-08T10:21:34.275Z,9.07
2023-09-08T10:24:07.394Z,9.90
2023-09-08T10:26:56.297Z,8.50
2023-09-08T10:29:24.818Z,9.50
2023-09-08T10:34:34.814Z,9.27
2023-09-08T10:37:02.394Z,9.25
2023-09-08T10:39:47.814Z,10.25
2023-09-08T10:42:18.350Z,8.18
2023-09-08T10:44:45.856Z,9.50
2023-09-08T11:25:22.422Z,7.70
2023-09-08T11:27:51.948Z,8.20
2023-09-08T11:30:19.681Z,8.27
2023-09-08T11:32:47.105Z,8.18
2023-09-08T11:35:16.992Z,6.75
2023-09-08T11:37:44.472Z,8.05
2023-09-08T11:40:15.417Z,6.70
2023-09-08T11:45:26.599Z,7.28
2023-09-08T12:09:17.802Z,6.57
2023-09-08T13:13:40.480Z,6.75
2023-09-08T13:16:08.503Z,5.93
2023-09-08T13:18:40.700Z,5.80
2023-09-08T14:47:26.112Z,6.53
2023-09-08T14:49:53.770Z,6.88
2023-09-08T14:52:22.077Z,6.85
2023-09-08T14:54:49.494Z,6.35
2023-09-08T14:57:16.991Z,6.55
2023-09-08T14:59:44.368Z,5.88
2023-09-08T15:02:11.917Z,5.95
2023-09-08T15:04:39.960Z,5.88
2023-09-08T15:12:32.883Z,5.22
2023-09-08T15:15:00.104Z,4.97
2023-09-08T15:20:11.732Z,5.97
2023-09-08T15:22:39.638Z,5.57
2023-09-08T15:25:07.550Z,5.53
2023-09-08T15:27:36.448Z,5.45
2023-09-08T15:30:03.739Z,5.82
2023-09-08T15:32:31.163Z,5.75
2023-09-08T15:34:59.110Z,5.47
2023-09-08T15:37:26.349Z,5.65
2023-09-08T15:39:55.061Z,5.93
2023-09-08T15:42:23.787Z,5.68
2023-09-08T15:44:52.126Z,6.00
2023-09-08T15:47:20.490Z,6.10
2023-09-08T15:49:48.735Z,5.80
2023-09-08T16:11:06.599Z,6.60
2023-09-08T16:13:34.459Z,6.18
2023-09-08T16:16:02.161Z,6.28
2023-09-08T16:18:29.499Z,6.20
2023-09-08T16:20:56.767Z,6.93
2023-09-08T16:23:24.066Z,6.00
2023-09-08T16:25:51.403Z,6.07
2023-09-08T16:28:18.932Z,6.57
2023-09-08T16:30:46.195Z,5.80
2023-09-08T16:33:15.662Z,6.05
2023-09-08T16:35:42.861Z,6.18
2023-09-08T16:38:10.936Z,6.38
2023-09-08T16:40:38.211Z,6.35
2023-09-08T16:43:06.390Z,6.28
2023-09-08T16:45:33.714Z,6.50
2023-09-08T16:48:00.984Z,6.53
2023-09-08T16:50:28.200Z,6.38
2023-09-08T16:52:55.496Z,7.20
2023-09-08T16:55:22.822Z,7.03
2023-09-08T16:57:50.057Z,6.72
2023-09-08T17:00:17.567Z,6.88
2023-09-08T17:02:45.030Z,6.70
2023-09-08T17:05:16.245Z,6.70
2023-09-08T17:07:44.457Z,6.93
2023-09-08T17:10:12.074Z,6.28
2023-09-08T17:12:40.041Z,6.50
2023-09-08T17:15:07.625Z,6.57
2023-09-08T17:17:34.766Z,6.68
2023-09-08T17:20:02.148Z,6.93
2023-09-08T17:22:29.529Z,6.72
2023-09-08T17:24:56.750Z,6.20
2023-09-08T17:27:26.519Z,7.13
2023-09-08T17:29:53.694Z,6.63
2023-09-08T17:32:21.045Z,7.70
2023-09-08T17:34:50.168Z,6.90
2023-09-08T17:37:17.919Z,7.63
2023-09-08T17:39:48.499Z,8.00
2023-09-08T17:42:15.699Z,7.90
2023-09-08T17:44:43.520Z,7.47
2023-09-08T17:49:37.852Z,8.90
2023-09-08T17:52:05.415Z,9.45
2023-09-08T17:54:32.841Z,11.52
2023-09-08T17:57:00.519Z,12.13
2023-09-08T17:59:48.959Z,8.98
2023-09-08T18:02:16.321Z,9.35
2023-09-08T18:04:43.713Z,9.38
2023-09-08T18:07:10.991Z,8.60
2023-09-08T18:09:38.702Z,8.80
2023-09-08T18:12:05.932Z,8.50
2023-09-08T18:14:33.119Z,8.15
2023-09-08T18:17:00.272Z,7.72
2023-09-08T18:19:27.495Z,9.02
2023-09-08T18:21:54.707Z,8.15
2023-09-08T18:24:21.907Z,8.65
2023-09-08T18:26:49.090Z,8.30
2023-09-08T18:29:16.229Z,9.80
2023-09-08T18:31:43.582Z,9.30
2023-09-08T18:34:10.966Z,9.32
2023-09-08T18:36:38.151Z,9.25
2023-09-08T18:39:05.664Z,9.18
2023-09-08T18:41:32.900Z,9.35
2023-09-08T18:44:00.046Z,9.27
2023-09-08T18:46:27.311Z,9.73
2023-09-08T18:48:54.647Z,8.90
2023-09-08T18:51:21.904Z,8.20
2023-09-08T18:53:49.090Z,10.13
2023-09-08T18:56:18.912Z,10.32
2023-09-08T18:58:46.370Z,10.02
2023-09-08T19:01:13.661Z,11.20
2023-09-08T19:03:44.166Z,9.85
2023-09-08T19:06:11.483Z,9.68
2023-09-08T19:08:38.788Z,11.40
2023-09-08T19:11:06.193Z,10.32
2023-09-08T19:13:33.530Z,10.93
2023-09-08T19:16:00.729Z,11.43
2023-09-08T19:18:28.023Z,10.75
2023-09-08T19:20:57.085Z,10.93
2023-09-08T19:23:24.324Z,11.15
2023-09-08T19:25:51.600Z,10.70
2023-09-08T19:28:18.822Z,11.27
2023-09-08T19:30:49.879Z,10.85
2023-09-08T19:33:17.146Z,11.23
2023-09-08T19:35:44.396Z,11.00
2023-09-08T19:38:11.711Z,11.20
2023-09-08T19:40:38.893Z,11.13
2023-09-08T19:43:06.036Z,11.13
2023-09-08T19:45:33.311Z,11.10
2023-09-08T19:48:00.817Z,10.80
2023-09-08T19:50:28.278Z,11.57
2023-09-08T19:52:55.437Z,11.10
2023-09-08T19:55:22.676Z,10.60
2023-09-08T19:57:50.869Z,11.88
2023-09-08T20:00:18.198Z,12.80
2023-09-08T20:02:45.451Z,11.38
2023-09-08T20:05:12.705Z,11.75
2023-09-08T20:07:40.359Z,10.88
2023-09-08T20:10:08.464Z,12.40
2023-09-08T20:12:38.639Z,11.75
2023-09-08T20:15:06.591Z,12.63
2023-09-08T20:17:33.840Z,12.18
2023-09-08T20:20:01.043Z,12.43
2023-09-08T20:22:31.406Z,11.32
2023-09-08T20:24:58.562Z,12.13
2023-09-08T20:27:25.849Z,11.90
2023-09-08T20:29:56.375Z,11.60
2023-09-08T20:32:24.227Z,12.18
2023-09-08T20:34:51.527Z,11.48
2023-09-08T20:37:18.742Z,11.93
2023-09-08T20:39:45.935Z,11.88
2023-09-08T20:42:13.267Z,12.30
2023-09-08T20:44:41.213Z,11.80
2023-09-08T20:47:08.427Z,11.95
2023-09-08T20:49:35.698Z,11.38
2023-09-08T20:52:02.938Z,10.80
2023-09-08T20:54:30.471Z,11.80
2023-09-08T20:56:57.599Z,12.77
2023-09-08T20:59:27.582Z,11.80
2023-09-08T21:01:56.535Z,11.95
2023-09-08T21:04:23.777Z,10.95
2023-09-08T21:06:52.748Z,11.27
2023-09-08T21:09:20.870Z,11.13
2023-09-08T21:14:17.668Z,10.75
2023-09-08T21:16:45.028Z,12.05
2023-09-08T21:19:14.802Z,11.60
2023-09-08T21:21:42.146Z,11.90
2023-09-08T21:24:09.596Z,10.93
2023-09-08T21:26:36.923Z,12.20
2023-09-08T21:29:04.366Z,12.57
2023-09-08T21:31:31.630Z,11.52
2023-09-08T21:33:59.982Z,12.05
2023-09-08T21:36:27.229Z,12.45
2023-09-08T21:38:56.565Z,11.68
2023-09-08T21:41:24.518Z,11.77
2023-09-08T21:43:51.744Z,10.98
2023-09-08T21:46:19.049Z,11.38
2023-09-08T21:48:46.343Z,12.45
2023-09-08T21:51:13.627Z,11.38
2023-09-08T21:53:41.005Z,10.45
2023-09-08T21:56:08.278Z,11.32
2023-09-08T21:58:35.821Z,10.73
2023-09-08T22:01:03.291Z,11.27
2023-09-08T22:03:32.134Z,10.75
2023-09-08T22:05:59.492Z,10.95
2023-09-08T22:08:26.728Z,10.23
2023-09-08T22:10:54.855Z,11.63
2023-09-08T22:15:49.279Z,12.00
2023-09-08T22:18:18.718Z,11.75
2023-09-08T22:20:46.519Z,11.90
2023-09-08T22:23:13.699Z,10.82
2023-09-08T22:25:40.838Z,11.35
2023-09-08T22:28:08.834Z,10.30
2023-09-08T22:30:36.070Z,10.95
2023-09-08T22:33:04.456Z,10.80
2023-09-08T22:35:31.737Z,10.23
2023-09-08T22:37:59.233Z,10.60
2023-09-08T22:40:26.709Z,10.57
2023-09-08T22:42:53.977Z,10.30
2023-09-08T22:45:21.329Z,11.45
2023-09-08T22:47:49.756Z,9.85
2023-09-08T22:50:17.915Z,10.13
2023-09-08T22:52:45.784Z,8.63
2023-09-08T22:55:25.296Z,10.65
2023-09-08T22:57:54.460Z,11.02
2023-09-08T23:00:22.261Z,9.15
2023-09-08T23:02:49.668Z,9.63
2023-09-08T23:05:17.020Z,9.95
2023-09-08T23:07:44.731Z,9.30
2023-09-08T23:10:12.255Z,10.52
2023-09-08T23:12:39.578Z,10.68
2023-09-08T23:15:07.209Z,10.77
2023-09-08T23:17:34.554Z,10.65
2023-09-08T23:20:01.881Z,10.02
2023-09-08T23:22:29.199Z,9.30
2023-09-08T23:24:56.379Z,9.93
2023-09-08T23:27:24.174Z,9.55
2023-09-08T23:29:52.376Z,11.63
2023-09-08T23:34:46.693Z,10.15
2023-09-08T23:37:14.142Z,8.90
2023-09-08T23:39:41.392Z,9.82
2023-09-08T23:42:08.567Z,9.32
2023-09-08T23:44:35.770Z,9.48
2023-09-08T23:47:04.985Z,9.55
2023-09-08T23:49:32.203Z,9.63
2023-09-08T23:51:59.374Z,9.98
2023-09-08T23:54:26.561Z,9.40
2023-09-08T23:56:57.270Z,10.00
2023-09-08T23:59:24.518Z,10.55
